sensor_id;sensor_type;location;lat;lon;timestamp;P1;durP1;ratioP1;P2;durP2;ratioP2
75456;SDS011;64036;48.266;14.192;2024-03-07T00:02:08;20.70;;;11.60;;
75456;SDS011;64036;48.266;14.192;2024-03-07T00:04:33;21.60;;;12.30;;
75456;SDS011;64036;48.266;14.192;2024-03-07T00:07:04;21.70;;;12.00;;
75456;SDS011;64036;48.266;14.192;2024-03-07T00:09:34;23.20;;;13.00;;
75456;SDS011;64036;48.266;14.192;2024-03-07T00:12:04;26.70;;;14.30;;
75456;SDS011;64036;48.266;14.192;2024-03-07T00:14:33;26.20;;;12.80;;
75456;SDS011;64036;48.266;14.192;2024-03-07T00:17:01;26.60;;;14.10;;
75456;SDS011;64036;48.266;14.192;2024-03-07T00:19:28;24.70;;;13.30;;
75456;SDS011;64036;48.266;14.192;2024-03-07T00:21:58;22.20;;;12.60;;
75456;SDS011;64036;48.266;14.192;2024-03-07T00:24:24;24.80;;;13.60;;
75456;SDS011;64036;48.266;14.192;2024-03-07T00:26:50;30.10;;;13.70;;
75456;SDS011;64036;48.266;14.192;2024-03-07T00:29:17;28.00;;;15.00;;
75456;SDS011;64036;48.266;14.192;2024-03-07T00:31:44;25.90;;;14.10;;
75456;SDS011;64036;48.266;14.192;2024-03-07T00:34:12;17.80;;;10.20;;
75456;SDS011;64036;48.266;14.192;2024-03-07T00:36:45;22.10;;;12.30;;
75456;SDS011;64036;48.266;14.192;2024-03-07T00:39:11;27.70;;;14.00;;
75456;SDS011;64036;48.266;14.192;2024-03-07T00:41:41;23.50;;;12.50;;
75456;SDS011;64036;48.266;14.192;2024-03-07T00:44:07;21.20;;;11.40;;
75456;SDS011;64036;48.266;14.192;2024-03-07T00:46:37;26.30;;;13.80;;
75456;SDS011;64036;48.266;14.192;2024-03-07T00:49:04;28.30;;;14.80;;
75456;SDS011;64036;48.266;14.192;2024-03-07T00:51:30;22.30;;;12.20;;
75456;SDS011;64036;48.266;14.192;2024-03-07T00:53:56;24.40;;;13.50;;
75456;SDS011;64036;48.266;14.192;2024-03-07T00:56:23;23.50;;;12.60;;
75456;SDS011;64036;48.266;14.192;2024-03-07T00:58:49;24.80;;;13.60;;
75456;SDS011;64036;48.266;14.192;2024-03-07T01:01:18;25.30;;;14.00;;
75456;SDS011;64036;48.266;14.192;2024-03-07T01:03:47;19.60;;;11.00;;
75456;SDS011;64036;48.266;14.192;2024-03-07T01:06:12;24.00;;;13.10;;
75456;SDS011;64036;48.266;14.192;2024-03-07T01:08:38;23.40;;;12.00;;
75456;SDS011;64036;48.266;14.192;2024-03-07T01:11:05;25.70;;;13.50;;
75456;SDS011;64036;48.266;14.192;2024-03-07T01:13:41;27.20;;;13.50;;
75456;SDS011;64036;48.266;14.192;2024-03-07T01:16:07;28.30;;;14.10;;
75456;SDS011;64036;48.266;14.192;2024-03-07T01:18:34;24.60;;;13.40;;
75456;SDS011;64036;48.266;14.192;2024-03-07T01:21:00;27.40;;;14.10;;
75456;SDS011;64036;48.266;14.192;2024-03-07T01:23:26;21.70;;;10.20;;
75456;SDS011;64036;48.266;14.192;2024-03-07T01:25:56;23.50;;;11.80;;
75456;SDS011;64036;48.266;14.192;2024-03-07T01:28:23;21.90;;;12.20;;
75456;SDS011;64036;48.266;14.192;2024-03-07T01:30:55;21.60;;;12.20;;
75456;SDS011;64036;48.266;14.192;2024-03-07T01:33:22;24.00;;;13.20;;
75456;SDS011;64036;48.266;14.192;2024-03-07T01:35:48;29.00;;;14.50;;
75456;SDS011;64036;48.266;14.192;2024-03-07T01:38:15;28.80;;;14.70;;
75456;SDS011;64036;48.266;14.192;2024-03-07T01:40:41;23.90;;;13.40;;
75456;SDS011;64036;48.266;14.192;2024-03-07T01:43:08;25.90;;;14.20;;
75456;SDS011;64036;48.266;14.192;2024-03-07T01:45:34;25.60;;;12.00;;
75456;SDS011;64036;48.266;14.192;2024-03-07T01:48:09;24.40;;;12.80;;
75456;SDS011;64036;48.266;14.192;2024-03-07T01:50:36;23.40;;;11.70;;
75456;SDS011;64036;48.266;14.192;2024-03-07T01:53:09;24.40;;;11.30;;
75456;SDS011;64036;48.266;14.192;2024-03-07T01:55:37;15.90;;;9.10;;
75456;SDS011;64036;48.266;14.192;2024-03-07T01:58:04;25.50;;;13.00;;
75456;SDS011;64036;48.266;14.192;2024-03-07T02:00:31;21.30;;;11.70;;
75456;SDS011;64036;48.266;14.192;2024-03-07T02:02:57;23.70;;;12.30;;
75456;SDS011;64036;48.266;14.192;2024-03-07T02:05:23;29.10;;;14.60;;
75456;SDS011;64036;48.266;14.192;2024-03-07T02:07:50;26.80;;;13.50;;
75456;SDS011;64036;48.266;14.192;2024-03-07T02:10:16;24.60;;;13.30;;
75456;SDS011;64036;48.266;14.192;2024-03-07T02:12:43;28.60;;;13.10;;
75456;SDS011;64036;48.266;14.192;2024-03-07T02:15:10;25.20;;;12.50;;
75456;SDS011;64036;48.266;14.192;2024-03-07T02:17:40;23.00;;;11.80;;
75456;SDS011;64036;48.266;14.192;2024-03-07T02:20:06;21.60;;;11.40;;
75456;SDS011;64036;48.266;14.192;2024-03-07T02:22:39;24.10;;;12.50;;
75456;SDS011;64036;48.266;14.192;2024-03-07T02:25:05;23.70;;;11.90;;
75456;SDS011;64036;48.266;14.192;2024-03-07T02:27:32;22.60;;;12.10;;
75456;SDS011;64036;48.266;14.192;2024-03-07T02:29:58;23.30;;;11.50;;
75456;SDS011;64036;48.266;14.192;2024-03-07T02:32:23;20.30;;;11.60;;
75456;SDS011;64036;48.266;14.192;2024-03-07T02:34:49;23.60;;;12.80;;
75456;SDS011;64036;48.266;14.192;2024-03-07T02:37:15;25.40;;;13.70;;
75456;SDS011;64036;48.266;14.192;2024-03-07T02:39:40;24.70;;;13.20;;
75456;SDS011;64036;48.266;14.192;2024-03-07T02:42:06;22.80;;;12.40;;
75456;SDS011;64036;48.266;14.192;2024-03-07T02:44:32;20.60;;;12.10;;
75456;SDS011;64036;48.266;14.192;2024-03-07T02:46:58;25.00;;;12.40;;
75456;SDS011;64036;48.266;14.192;2024-03-07T02:49:24;25.40;;;14.00;;
75456;SDS011;64036;48.266;14.192;2024-03-07T02:51:50;30.20;;;15.60;;
75456;SDS011;64036;48.266;14.192;2024-03-07T02:54:15;27.90;;;14.60;;
75456;SDS011;64036;48.266;14.192;2024-03-07T02:56:41;33.10;;;15.60;;
75456;SDS011;64036;48.266;14.192;2024-03-07T02:59:07;29.20;;;16.50;;
75456;SDS011;64036;48.266;14.192;2024-03-07T03:01:33;32.50;;;16.80;;
75456;SDS011;64036;48.266;14.192;2024-03-07T03:03:59;33.00;;;17.80;;
75456;SDS011;64036;48.266;14.192;2024-03-07T03:06:24;32.70;;;17.70;;
75456;SDS011;64036;48.266;14.192;2024-03-07T03:08:50;29.80;;;15.70;;
75456;SDS011;64036;48.266;14.192;2024-03-07T03:11:19;31.70;;;17.10;;
75456;SDS011;64036;48.266;14.192;2024-03-07T03:13:46;32.20;;;17.40;;
75456;SDS011;64036;48.266;14.192;2024-03-07T03:16:13;30.00;;;16.00;;
75456;SDS011;64036;48.266;14.192;2024-03-07T03:18:39;32.90;;;17.50;;
75456;SDS011;64036;48.266;14.192;2024-03-07T03:21:04;30.40;;;16.50;;
75456;SDS011;64036;48.266;14.192;2024-03-07T03:23:30;31.90;;;17.60;;
75456;SDS011;64036;48.266;14.192;2024-03-07T03:25:56;32.20;;;16.00;;
75456;SDS011;64036;48.266;14.192;2024-03-07T03:28:22;28.30;;;14.70;;
75456;SDS011;64036;48.266;14.192;2024-03-07T03:30:49;32.30;;;16.70;;
75456;SDS011;64036;48.266;14.192;2024-03-07T03:33:17;30.30;;;15.50;;
75456;SDS011;64036;48.266;14.192;2024-03-07T03:35:43;31.10;;;16.40;;
75456;SDS011;64036;48.266;14.192;2024-03-07T03:38:09;30.90;;;16.70;;
75456;SDS011;64036;48.266;14.192;2024-03-07T03:40:35;25.60;;;14.20;;
75456;SDS011;64036;48.266;14.192;2024-03-07T03:43:02;25.90;;;14.30;;
75456;SDS011;64036;48.266;14.192;2024-03-07T03:45:27;31.50;;;16.30;;
75456;SDS011;64036;48.266;14.192;2024-03-07T03:47:54;31.20;;;15.60;;
75456;SDS011;64036;48.266;14.192;2024-03-07T03:50:20;30.20;;;15.20;;
75456;SDS011;64036;48.266;14.192;2024-03-07T03:52:49;25.40;;;13.80;;
75456;SDS011;64036;48.266;14.192;2024-03-07T03:55:15;27.10;;;14.70;;
75456;SDS011;64036;48.266;14.192;2024-03-07T03:57:42;24.70;;;13.80;;
75456;SDS011;64036;48.266;14.192;2024-03-07T04:00:10;26.80;;;14.40;;
75456;SDS011;64036;48.266;14.192;2024-03-07T04:02:43;31.10;;;17.30;;
75456;SDS011;64036;48.266;14.192;2024-03-07T04:05:10;33.40;;;17.50;;
75456;SDS011;64036;48.266;14.192;2024-03-07T04:07:40;30.20;;;16.00;;
75456;SDS011;64036;48.266;14.192;2024-03-07T04:10:11;30.90;;;17.50;;
75456;SDS011;64036;48.266;14.192;2024-03-07T04:12:39;30.20;;;15.80;;
75456;SDS011;64036;48.266;14.192;2024-03-07T04:15:07;28.50;;;16.20;;
75456;SDS011;64036;48.266;14.192;2024-03-07T04:17:34;31.30;;;16.20;;
75456;SDS011;64036;48.266;14.192;2024-03-07T04:20:01;31.60;;;16.60;;
75456;SDS011;64036;48.266;14.192;2024-03-07T04:22:31;28.30;;;14.60;;
75456;SDS011;64036;48.266;14.192;2024-03-07T04:24:58;29.50;;;15.40;;
75456;SDS011;64036;48.266;14.192;2024-03-07T04:27:24;28.80;;;16.50;;
75456;SDS011;64036;48.266;14.192;2024-03-07T04:29:51;30.40;;;15.80;;
75456;SDS011;64036;48.266;14.192;2024-03-07T04:32:17;30.60;;;16.50;;
75456;SDS011;64036;48.266;14.192;2024-03-07T04:34:46;28.60;;;15.20;;
75456;SDS011;64036;48.266;14.192;2024-03-07T04:37:12;26.80;;;14.60;;
75456;SDS011;64036;48.266;14.192;2024-03-07T04:39:39;26.00;;;15.20;;
75456;SDS011;64036;48.266;14.192;2024-03-07T04:42:06;28.10;;;15.60;;
75456;SDS011;64036;48.266;14.192;2024-03-07T04:44:35;29.50;;;16.40;;
75456;SDS011;64036;48.266;14.192;2024-03-07T04:47:03;29.30;;;15.70;;
75456;SDS011;64036;48.266;14.192;2024-03-07T04:49:30;28.80;;;15.10;;
75456;SDS011;64036;48.266;14.192;2024-03-07T04:51:59;25.60;;;14.60;;
75456;SDS011;64036;48.266;14.192;2024-03-07T04:54:28;23.60;;;13.40;;
75456;SDS011;64036;48.266;14.192;2024-03-07T04:56:54;24.50;;;13.80;;
75456;SDS011;64036;48.266;14.192;2024-03-07T04:59:21;24.70;;;13.60;;
75456;SDS011;64036;48.266;14.192;2024-03-07T05:01:49;23.00;;;13.40;;
75456;SDS011;64036;48.266;14.192;2024-03-07T05:04:16;23.70;;;13.30;;
75456;SDS011;64036;48.266;14.192;2024-03-07T05:06:42;25.80;;;15.00;;
75456;SDS011;64036;48.266;14.192;2024-03-07T05:09:09;25.50;;;13.80;;
75456;SDS011;64036;48.266;14.192;2024-03-07T05:11:48;25.80;;;14.20;;
75456;SDS011;64036;48.266;14.192;2024-03-07T05:14:17;26.40;;;15.00;;
75456;SDS011;64036;48.266;14.192;2024-03-07T05:16:43;23.70;;;14.00;;
75456;SDS011;64036;48.266;14.192;2024-03-07T05:19:09;25.90;;;13.80;;
75456;SDS011;64036;48.266;14.192;2024-03-07T05:21:35;30.80;;;16.00;;
75456;SDS011;64036;48.266;14.192;2024-03-07T05:24:06;24.60;;;14.70;;
75456;SDS011;64036;48.266;14.192;2024-03-07T05:26:36;28.70;;;14.30;;
75456;SDS011;64036;48.266;14.192;2024-03-07T05:29:07;25.30;;;14.90;;
75456;SDS011;64036;48.266;14.192;2024-03-07T05:31:34;31.30;;;14.30;;
75456;SDS011;64036;48.266;14.192;2024-03-07T05:34:02;28.10;;;15.20;;
75456;SDS011;64036;48.266;14.192;2024-03-07T05:36:35;25.50;;;13.40;;
75456;SDS011;64036;48.266;14.192;2024-03-07T05:39:02;24.50;;;13.40;;
75456;SDS011;64036;48.266;14.192;2024-03-07T05:41:35;25.80;;;14.70;;
75456;SDS011;64036;48.266;14.192;2024-03-07T05:44:00;25.40;;;13.70;;
75456;SDS011;64036;48.266;14.192;2024-03-07T05:46:26;26.40;;;14.40;;
75456;SDS011;64036;48.266;14.192;2024-03-07T05:48:52;22.50;;;13.40;;
75456;SDS011;64036;48.266;14.192;2024-03-07T05:51:24;21.40;;;11.80;;
75456;SDS011;64036;48.266;14.192;2024-03-07T05:53:53;20.70;;;11.10;;
75456;SDS011;64036;48.266;14.192;2024-03-07T05:56:18;22.40;;;11.20;;
75456;SDS011;64036;48.266;14.192;2024-03-07T05:58:45;17.00;;;10.70;;
75456;SDS011;64036;48.266;14.192;2024-03-07T06:01:10;17.50;;;9.70;;
75456;SDS011;64036;48.266;14.192;2024-03-07T06:03:37;19.90;;;10.90;;
75456;SDS011;64036;48.266;14.192;2024-03-07T06:06:03;18.00;;;10.20;;
75456;SDS011;64036;48.266;14.192;2024-03-07T06:08:32;17.40;;;9.70;;
75456;SDS011;64036;48.266;14.192;2024-03-07T06:10:57;17.10;;;10.20;;
75456;SDS011;64036;48.266;14.192;2024-03-07T06:13:23;17.30;;;10.00;;
75456;SDS011;64036;48.266;14.192;2024-03-07T06:15:49;16.40;;;9.40;;
75456;SDS011;64036;48.266;14.192;2024-03-07T06:18:14;16.50;;;10.10;;
75456;SDS011;64036;48.266;14.192;2024-03-07T06:20:41;14.30;;;8.00;;
75456;SDS011;64036;48.266;14.192;2024-03-07T06:23:08;16.60;;;9.20;;
75456;SDS011;64036;48.266;14.192;2024-03-07T06:25:35;18.40;;;10.40;;
75456;SDS011;64036;48.266;14.192;2024-03-07T06:28:16;16.70;;;8.80;;
75456;SDS011;64036;48.266;14.192;2024-03-07T06:30:46;17.60;;;9.30;;
75456;SDS011;64036;48.266;14.192;2024-03-07T06:33:13;15.70;;;9.10;;
75456;SDS011;64036;48.266;14.192;2024-03-07T06:35:42;15.70;;;8.20;;
75456;SDS011;64036;48.266;14.192;2024-03-07T06:38:09;17.90;;;9.50;;
75456;SDS011;64036;48.266;14.192;2024-03-07T06:40:36;17.30;;;10.10;;
75456;SDS011;64036;48.266;14.192;2024-03-07T06:43:05;17.20;;;9.80;;
75456;SDS011;64036;48.266;14.192;2024-03-07T06:45:35;16.10;;;9.30;;
75456;SDS011;64036;48.266;14.192;2024-03-07T06:48:03;17.90;;;8.50;;
75456;SDS011;64036;48.266;14.192;2024-03-07T06:50:32;14.70;;;8.40;;
75456;SDS011;64036;48.266;14.192;2024-03-07T06:53:02;15.70;;;8.30;;
75456;SDS011;64036;48.266;14.192;2024-03-07T06:55:28;15.50;;;9.20;;
75456;SDS011;64036;48.266;14.192;2024-03-07T06:57:54;17.20;;;9.70;;
75456;SDS011;64036;48.266;14.192;2024-03-07T07:00:20;13.00;;;7.50;;
75456;SDS011;64036;48.266;14.192;2024-03-07T07:02:48;14.70;;;8.60;;
75456;SDS011;64036;48.266;14.192;2024-03-07T07:05:14;16.40;;;9.50;;
75456;SDS011;64036;48.266;14.192;2024-03-07T07:07:49;15.10;;;9.20;;
75456;SDS011;64036;48.266;14.192;2024-03-07T07:10:16;14.60;;;9.40;;
75456;SDS011;64036;48.266;14.192;2024-03-07T07:12:47;18.50;;;10.20;;
75456;SDS011;64036;48.266;14.192;2024-03-07T07:15:15;19.50;;;10.10;;
75456;SDS011;64036;48.266;14.192;2024-03-07T07:17:44;17.60;;;9.70;;
75456;SDS011;64036;48.266;14.192;2024-03-07T07:20:12;18.30;;;10.30;;
75456;SDS011;64036;48.266;14.192;2024-03-07T07:22:49;16.80;;;9.90;;
75456;SDS011;64036;48.266;14.192;2024-03-07T07:25:16;16.80;;;9.40;;
75456;SDS011;64036;48.266;14.192;2024-03-07T07:27:49;18.80;;;10.80;;
75456;SDS011;64036;48.266;14.192;2024-03-07T07:30:18;18.80;;;10.60;;
75456;SDS011;64036;48.266;14.192;2024-03-07T07:32:45;22.40;;;11.80;;
75456;SDS011;64036;48.266;14.192;2024-03-07T07:35:11;19.50;;;11.70;;
75456;SDS011;64036;48.266;14.192;2024-03-07T07:37:41;17.80;;;10.50;;
75456;SDS011;64036;48.266;14.192;2024-03-07T07:40:13;20.20;;;11.90;;
75456;SDS011;64036;48.266;14.192;2024-03-07T07:42:47;19.50;;;11.50;;
75456;SDS011;64036;48.266;14.192;2024-03-07T07:45:20;22.80;;;13.40;;
75456;SDS011;64036;48.266;14.192;2024-03-07T07:47:51;20.90;;;11.70;;
75456;SDS011;64036;48.266;14.192;2024-03-07T07:50:20;23.40;;;14.10;;
75456;SDS011;64036;48.266;14.192;2024-03-07T07:55:27;19.40;;;12.00;;
75456;SDS011;64036;48.266;14.192;2024-03-07T07:57:57;18.60;;;11.50;;
75456;SDS011;64036;48.266;14.192;2024-03-07T08:00:27;19.90;;;11.50;;
75456;SDS011;64036;48.266;14.192;2024-03-07T08:05:36;17.60;;;11.00;;
75456;SDS011;64036;48.266;14.192;2024-03-07T08:08:06;16.90;;;10.20;;
75456;SDS011;64036;48.266;14.192;2024-03-07T08:10:36;18.00;;;11.30;;
75456;SDS011;64036;48.266;14.192;2024-03-07T08:13:04;17.70;;;10.90;;
75456;SDS011;64036;48.266;14.192;2024-03-07T08:15:37;16.60;;;10.10;;
75456;SDS011;64036;48.266;14.192;2024-03-07T08:18:03;16.20;;;11.00;;
75456;SDS011;64036;48.266;14.192;2024-03-07T08:20:34;16.60;;;10.10;;
75456;SDS011;64036;48.266;14.192;2024-03-07T08:23:00;19.90;;;12.20;;
75456;SDS011;64036;48.266;14.192;2024-03-07T08:25:27;20.00;;;12.80;;
75456;SDS011;64036;48.266;14.192;2024-03-07T08:27:55;20.10;;;12.00;;
75456;SDS011;64036;48.266;14.192;2024-03-07T08:30:24;19.60;;;12.00;;
75456;SDS011;64036;48.266;14.192;2024-03-07T08:32:52;20.20;;;12.50;;
75456;SDS011;64036;48.266;14.192;2024-03-07T08:35:19;18.30;;;11.00;;
75456;SDS011;64036;48.266;14.192;2024-03-07T08:37:46;19.90;;;12.10;;
75456;SDS011;64036;48.266;14.192;2024-03-07T08:40:19;21.90;;;13.00;;
75456;SDS011;64036;48.266;14.192;2024-03-07T08:42:47;19.00;;;12.10;;
75456;SDS011;64036;48.266;14.192;2024-03-07T08:45:15;20.90;;;12.90;;
75456;SDS011;64036;48.266;14.192;2024-03-07T08:47:48;18.60;;;11.40;;
75456;SDS011;64036;48.266;14.192;2024-03-07T08:50:17;18.70;;;10.70;;
75456;SDS011;64036;48.266;14.192;2024-03-07T08:52:44;15.90;;;10.00;;
75456;SDS011;64036;48.266;14.192;2024-03-07T08:55:15;19.00;;;11.40;;
75456;SDS011;64036;48.266;14.192;2024-03-07T08:57:43;16.80;;;10.40;;
75456;SDS011;64036;48.266;14.192;2024-03-07T09:00:12;16.10;;;10.60;;
75456;SDS011;64036;48.266;14.192;2024-03-07T09:02:48;15.40;;;10.00;;
75456;SDS011;64036;48.266;14.192;2024-03-07T09:05:23;18.50;;;11.90;;
75456;SDS011;64036;48.266;14.192;2024-03-07T09:07:49;16.40;;;10.10;;
75456;SDS011;64036;48.266;14.192;2024-03-07T09:10:16;17.60;;;11.80;;
75456;SDS011;64036;48.266;14.192;2024-03-07T09:12:46;16.30;;;10.50;;
75456;SDS011;64036;48.266;14.192;2024-03-07T09:15:15;13.50;;;9.20;;
75456;SDS011;64036;48.266;14.192;2024-03-07T09:17:43;16.90;;;11.00;;
75456;SDS011;64036;48.266;14.192;2024-03-07T09:20:09;16.30;;;10.50;;
75456;SDS011;64036;48.266;14.192;2024-03-07T09:22:48;15.40;;;10.40;;
75456;SDS011;64036;48.266;14.192;2024-03-07T09:25:15;14.00;;;9.10;;
75456;SDS011;64036;48.266;14.192;2024-03-07T09:27:42;16.00;;;10.50;;
75456;SDS011;64036;48.266;14.192;2024-03-07T09:30:08;15.40;;;10.70;;
75456;SDS011;64036;48.266;14.192;2024-03-07T09:32:40;15.20;;;10.40;;
75456;SDS011;64036;48.266;14.192;2024-03-07T09:35:08;16.10;;;10.50;;
75456;SDS011;64036;48.266;14.192;2024-03-07T09:37:38;15.30;;;9.80;;
75456;SDS011;64036;48.266;14.192;2024-03-07T09:40:08;14.30;;;9.10;;
75456;SDS011;64036;48.266;14.192;2024-03-07T09:42:42;13.40;;;8.50;;
75456;SDS011;64036;48.266;14.192;2024-03-07T09:45:17;14.80;;;9.90;;
75456;SDS011;64036;48.266;14.192;2024-03-07T09:47:48;15.50;;;10.10;;
75456;SDS011;64036;48.266;14.192;2024-03-07T09:50:19;19.30;;;11.70;;
75456;SDS011;64036;48.266;14.192;2024-03-07T09:52:49;13.20;;;8.90;;
75456;SDS011;64036;48.266;14.192;2024-03-07T09:55:16;14.60;;;9.70;;
75456;SDS011;64036;48.266;14.192;2024-03-07T09:57:43;17.20;;;11.20;;
75456;SDS011;64036;48.266;14.192;2024-03-07T10:00:12;15.90;;;10.50;;
75456;SDS011;64036;48.266;14.192;2024-03-07T10:02:49;14.60;;;9.30;;
75456;SDS011;64036;48.266;14.192;2024-03-07T10:05:18;16.00;;;10.20;;
75456;SDS011;64036;48.266;14.192;2024-03-07T10:07:45;14.00;;;9.30;;
75456;SDS011;64036;48.266;14.192;2024-03-07T10:10:11;17.10;;;10.70;;
75456;SDS011;64036;48.266;14.192;2024-03-07T10:12:38;15.20;;;10.00;;
75456;SDS011;64036;48.266;14.192;2024-03-07T10:15:04;15.00;;;10.20;;
75456;SDS011;64036;48.266;14.192;2024-03-07T10:17:31;13.10;;;8.50;;
75456;SDS011;64036;48.266;14.192;2024-03-07T10:19:59;14.60;;;9.50;;
75456;SDS011;64036;48.266;14.192;2024-03-07T10:22:26;14.80;;;9.70;;
75456;SDS011;64036;48.266;14.192;2024-03-07T10:24:53;12.40;;;8.60;;
75456;SDS011;64036;48.266;14.192;2024-03-07T10:27:25;13.30;;;8.80;;
75456;SDS011;64036;48.266;14.192;2024-03-07T10:29:52;12.40;;;8.50;;
75456;SDS011;64036;48.266;14.192;2024-03-07T10:32:24;14.00;;;9.50;;
75456;SDS011;64036;48.266;14.192;2024-03-07T10:34:51;12.60;;;8.10;;
75456;SDS011;64036;48.266;14.192;2024-03-07T10:37:18;12.60;;;8.10;;
75456;SDS011;64036;48.266;14.192;2024-03-07T10:39:46;12.10;;;7.80;;
75456;SDS011;64036;48.266;14.192;2024-03-07T10:42:15;13.70;;;8.30;;
75456;SDS011;64036;48.266;14.192;2024-03-07T10:44:46;12.90;;;8.50;;
75456;SDS011;64036;48.266;14.192;2024-03-07T10:47:18;11.90;;;7.80;;
75456;SDS011;64036;48.266;14.192;2024-03-07T10:53:20;12.50;;;8.20;;
75456;SDS011;64036;48.266;14.192;2024-03-07T10:59:25;11.30;;;6.50;;
75456;SDS011;64036;48.266;14.192;2024-03-07T11:04:52;11.00;;;7.50;;
75456;SDS011;64036;48.266;14.192;2024-03-07T11:07:22;12.10;;;7.30;;
75456;SDS011;64036;48.266;14.192;2024-03-07T11:09:49;11.20;;;6.40;;
75456;SDS011;64036;48.266;14.192;2024-03-07T11:12:19;9.80;;;5.70;;
75456;SDS011;64036;48.266;14.192;2024-03-07T11:14:50;11.30;;;7.00;;
75456;SDS011;64036;48.266;14.192;2024-03-07T11:17:18;10.40;;;6.20;;
75456;SDS011;64036;48.266;14.192;2024-03-07T11:19:45;10.60;;;6.20;;
75456;SDS011;64036;48.266;14.192;2024-03-07T11:22:28;10.60;;;6.00;;
75456;SDS011;64036;48.266;14.192;2024-03-07T11:25:01;11.80;;;7.00;;
75456;SDS011;64036;48.266;14.192;2024-03-07T11:27:51;9.70;;;5.80;;
75456;SDS011;64036;48.266;14.192;2024-03-07T11:30:21;9.10;;;5.70;;
75456;SDS011;64036;48.266;14.192;2024-03-07T11:32:48;9.30;;;5.50;;
75456;SDS011;64036;48.266;14.192;2024-03-07T11:35:40;11.10;;;6.10;;
75456;SDS011;64036;48.266;14.192;2024-03-07T11:38:07;10.90;;;6.10;;
75456;SDS011;64036;48.266;14.192;2024-03-07T11:43:01;9.50;;;5.70;;
75456;SDS011;64036;48.266;14.192;2024-03-07T11:45:30;10.50;;;6.30;;
75456;SDS011;64036;48.266;14.192;2024-03-07T11:48:10;9.60;;;6.40;;
75456;SDS011;64036;48.266;14.192;2024-03-07T11:50:37;11.20;;;6.70;;
75456;SDS011;64036;48.266;14.192;2024-03-07T11:53:05;13.50;;;7.10;;
75456;SDS011;64036;48.266;14.192;2024-03-07T11:55:36;18.00;;;11.00;;
75456;SDS011;64036;48.266;14.192;2024-03-07T11:58:14;16.90;;;10.50;;
75456;SDS011;64036;48.266;14.192;2024-03-07T12:00:47;17.50;;;9.90;;
75456;SDS011;64036;48.266;14.192;2024-03-07T12:03:14;17.50;;;10.80;;
75456;SDS011;64036;48.266;14.192;2024-03-07T12:05:47;18.00;;;10.80;;
75456;SDS011;64036;48.266;14.192;2024-03-07T12:08:14;21.80;;;10.70;;
75456;SDS011;64036;48.266;14.192;2024-03-07T12:10:41;19.30;;;11.20;;
75456;SDS011;64036;48.266;14.192;2024-03-07T12:13:11;16.70;;;10.30;;
75456;SDS011;64036;48.266;14.192;2024-03-07T12:15:40;20.10;;;12.20;;
75456;SDS011;64036;48.266;14.192;2024-03-07T12:18:08;20.10;;;12.40;;
75456;SDS011;64036;48.266;14.192;2024-03-07T12:20:44;20.90;;;13.20;;
75456;SDS011;64036;48.266;14.192;2024-03-07T12:23:19;19.70;;;12.50;;
75456;SDS011;64036;48.266;14.192;2024-03-07T12:25:47;16.70;;;10.30;;
75456;SDS011;64036;48.266;14.192;2024-03-07T12:28:14;24.80;;;12.70;;
75456;SDS011;64036;48.266;14.192;2024-03-07T12:33:12;22.50;;;12.40;;
75456;SDS011;64036;48.266;14.192;2024-03-07T12:35:43;18.60;;;11.60;;
75456;SDS011;64036;48.266;14.192;2024-03-07T12:38:10;21.20;;;12.90;;
75456;SDS011;64036;48.266;14.192;2024-03-07T12:40:39;20.90;;;12.40;;
75456;SDS011;64036;48.266;14.192;2024-03-07T12:43:18;21.60;;;13.10;;
75456;SDS011;64036;48.266;14.192;2024-03-07T12:45:51;20.50;;;12.80;;
75456;SDS011;64036;48.266;14.192;2024-03-07T12:48:21;20.90;;;12.90;;
75456;SDS011;64036;48.266;14.192;2024-03-07T12:50:47;17.60;;;11.10;;
75456;SDS011;64036;48.266;14.192;2024-03-07T12:53:23;20.30;;;11.40;;
75456;SDS011;64036;48.266;14.192;2024-03-07T12:55:52;18.50;;;11.80;;
75456;SDS011;64036;48.266;14.192;2024-03-07T12:58:18;20.70;;;12.40;;
75456;SDS011;64036;48.266;14.192;2024-03-07T13:00:45;21.10;;;13.30;;
75456;SDS011;64036;48.266;14.192;2024-03-07T13:03:11;20.60;;;12.40;;
75456;SDS011;64036;48.266;14.192;2024-03-07T13:05:40;19.70;;;12.10;;
75456;SDS011;64036;48.266;14.192;2024-03-07T13:08:08;17.80;;;11.00;;
75456;SDS011;64036;48.266;14.192;2024-03-07T13:10:44;20.10;;;12.60;;
75456;SDS011;64036;48.266;14.192;2024-03-07T13:13:10;19.70;;;12.40;;
75456;SDS011;64036;48.266;14.192;2024-03-07T13:15:40;21.60;;;13.00;;
75456;SDS011;64036;48.266;14.192;2024-03-07T13:18:08;20.60;;;12.10;;
75456;SDS011;64036;48.266;14.192;2024-03-07T13:20:35;19.50;;;11.90;;
75456;SDS011;64036;48.266;14.192;2024-03-07T13:23:01;18.90;;;10.80;;
75456;SDS011;64036;48.266;14.192;2024-03-07T13:25:29;19.40;;;11.60;;
75456;SDS011;64036;48.266;14.192;2024-03-07T13:28:11;22.00;;;12.90;;
75456;SDS011;64036;48.266;14.192;2024-03-07T13:30:49;17.10;;;10.70;;
75456;SDS011;64036;48.266;14.192;2024-03-07T13:33:16;19.60;;;11.10;;
75456;SDS011;64036;48.266;14.192;2024-03-07T13:35:43;16.90;;;10.10;;
75456;SDS011;64036;48.266;14.192;2024-03-07T13:38:09;18.30;;;11.50;;
75456;SDS011;64036;48.266;14.192;2024-03-07T13:40:35;16.10;;;10.40;;
75456;SDS011;64036;48.266;14.192;2024-03-07T13:43:04;19.70;;;11.80;;
75456;SDS011;64036;48.266;14.192;2024-03-07T13:45:35;20.40;;;12.30;;
75456;SDS011;64036;48.266;14.192;2024-03-07T13:48:05;15.90;;;9.90;;
75456;SDS011;64036;48.266;14.192;2024-03-07T13:50:33;16.80;;;10.40;;
75456;SDS011;64036;48.266;14.192;2024-03-07T13:53:00;13.90;;;9.00;;
75456;SDS011;64036;48.266;14.192;2024-03-07T14:11:18;18.40;;;11.50;;
75456;SDS011;64036;48.266;14.192;2024-03-07T14:21:04;18.60;;;10.60;;
75456;SDS011;64036;48.266;14.192;2024-03-07T14:24:05;15.90;;;10.50;;
75456;SDS011;64036;48.266;14.192;2024-03-07T14:32:15;15.10;;;9.70;;
75456;SDS011;64036;48.266;14.192;2024-03-07T14:35:00;15.40;;;9.30;;
75456;SDS011;64036;48.266;14.192;2024-03-07T14:40:22;15.40;;;8.40;;
75456;SDS011;64036;48.266;14.192;2024-03-07T14:42:50;14.80;;;8.40;;
75456;SDS011;64036;48.266;14.192;2024-03-07T14:45:21;14.20;;;7.70;;
75456;SDS011;64036;48.266;14.192;2024-03-07T14:47:50;15.30;;;8.40;;
75456;SDS011;64036;48.266;14.192;2024-03-07T14:50:21;14.60;;;8.90;;
75456;SDS011;64036;48.266;14.192;2024-03-07T14:52:48;14.80;;;8.70;;
75456;SDS011;64036;48.266;14.192;2024-03-07T14:55:14;13.60;;;8.10;;
75456;SDS011;64036;48.266;14.192;2024-03-07T14:57:41;10.60;;;5.00;;
75456;SDS011;64036;48.266;14.192;2024-03-07T15:00:09;12.40;;;5.80;;
75456;SDS011;64036;48.266;14.192;2024-03-07T15:02:49;10.60;;;5.60;;
75456;SDS011;64036;48.266;14.192;2024-03-07T15:05:15;14.20;;;7.90;;
75456;SDS011;64036;48.266;14.192;2024-03-07T15:07:52;12.20;;;6.40;;
75456;SDS011;64036;48.266;14.192;2024-03-07T15:10:22;12.00;;;6.60;;
75456;SDS011;64036;48.266;14.192;2024-03-07T15:12:52;12.30;;;6.80;;
75456;SDS011;64036;48.266;14.192;2024-03-07T15:15:19;11.00;;;6.40;;